createdAt,value
2018-06-04T00:00:42.320Z,96292.00
2018-06-04T00:03:12.759Z,96287.00
2018-06-04T00:05:43.211Z,96294.00
2018-06-04T00:08:13.657Z,96288.00
2018-06-04T00:10:44.100Z,96301.00
2018-06-04T00:13:14.575Z,96280.00
2018-06-04T00:15:45.034Z,96272.00
2018-06-04T00:18:15.524Z,96273.00
2018-06-04T00:20:45.967Z,96271.00
2018-06-04T00:23:16.439Z,96273.00
2018-06-04T00:25:46.900Z,96265.00
2018-06-04T00:28:17.340Z,96270.00
2018-06-04T00:30:47.827Z,96268.00
2018-06-04T00:33:18.374Z,96266.00
2018-06-04T00:35:48.847Z,96272.00
2018-06-04T00:38:19.275Z,96272.00
2018-06-04T00:40:49.827Z,96262.00
2018-06-04T00:43:20.269Z,96261.00
2018-06-04T00:45:50.729Z,96261.00
2018-06-04T00:48:21.190Z,96257.00
2018-06-04T00:50:51.655Z,96253.00
2018-06-04T00:53:22.112Z,96249.00
2018-06-04T00:56:09.221Z,96244.00
2018-06-04T00:58:39.676Z,96238.00
2018-06-04T01:01:10.124Z,96243.00
2018-06-04T01:03:40.575Z,96246.00
2018-06-04T01:06:11.080Z,96249.00
2018-06-04T01:08:41.618Z,96236.00
2018-06-04T01:11:12.211Z,96235.00
2018-06-04T01:13:42.768Z,96231.00
2018-06-04T01:16:13.267Z,96234.00
2018-06-04T01:18:43.693Z,96236.00
2018-06-04T01:21:14.207Z,96227.00
2018-06-04T01:23:44.639Z,96227.00
2018-06-04T01:26:15.091Z,96214.00
2018-06-04T01:28:45.655Z,96210.00
2018-06-04T01:31:16.095Z,96209.00
2018-06-04T01:33:46.579Z,96205.00
2018-06-04T01:36:17.020Z,96205.00
2018-06-04T01:38:47.491Z,96202.00
2018-06-04T01:41:17.931Z,96200.00
2018-06-04T01:43:48.409Z,96201.00
2018-06-04T01:46:18.868Z,96190.00
2018-06-04T01:48:49.323Z,96188.00
2018-06-04T01:51:19.779Z,96186.00
2018-06-04T01:53:50.225Z,96178.00
2018-06-04T01:56:20.702Z,96175.00
2018-06-04T01:58:51.139Z,96176.00
2018-06-04T02:01:21.603Z,96170.00
2018-06-04T02:03:52.091Z,96163.00
2018-06-04T02:06:22.600Z,96167.00
2018-06-04T02:08:53.028Z,96160.00
2018-06-04T02:11:23.485Z,96163.00
2018-06-04T02:13:53.925Z,96151.00
2018-06-04T02:16:24.357Z,96150.00
2018-06-04T02:18:54.853Z,96147.00
2018-06-04T02:21:25.338Z,96148.00
2018-06-04T02:23:55.810Z,96141.00
2018-06-04T02:26:26.246Z,96149.00
2018-06-04T02:28:56.732Z,96147.00
2018-06-04T02:31:27.156Z,96145.00
2018-06-04T02:33:57.607Z,96148.00
2018-06-04T02:36:28.064Z,96144.00
2018-06-04T02:38:58.518Z,96147.00
2018-06-04T02:41:28.988Z,96147.00
2018-06-04T02:43:59.412Z,96151.00
2018-06-04T02:46:29.885Z,96141.00
2018-06-04T02:49:00.348Z,96142.00
2018-06-04T02:51:30.801Z,96147.00
2018-06-04T02:54:01.311Z,96145.00
2018-06-04T02:56:31.799Z,96145.00
2018-06-04T02:59:02.236Z,96142.00
2018-06-04T03:01:32.723Z,96144.00
2018-06-04T03:04:03.164Z,96143.00
2018-06-04T03:06:33.611Z,96136.00
2018-06-04T03:09:06.043Z,96138.00
2018-06-04T03:11:36.792Z,96133.00
2018-06-04T03:14:07.695Z,96134.00
2018-06-04T03:16:38.136Z,96134.00
2018-06-04T03:19:08.604Z,96142.00
2018-06-04T03:21:39.065Z,96127.00
2018-06-04T03:24:09.633Z,96133.00
2018-06-04T03:26:40.073Z,96129.00
2018-06-04T03:29:10.526Z,96124.00
2018-06-04T03:31:41.069Z,96122.00
2018-06-04T03:34:11.548Z,96130.00
2018-06-04T03:36:42.023Z,96125.00
2018-06-04T03:39:12.753Z,96123.00
2018-06-04T03:41:43.223Z,96127.00
2018-06-04T03:44:13.711Z,96122.00
2018-06-04T03:46:44.149Z,96127.00
2018-06-04T03:49:14.616Z,96115.00
2018-06-04T03:51:45.062Z,96115.00
2018-06-04T03:54:15.516Z,96103.00
2018-06-04T03:56:45.967Z,96115.00
2018-06-04T03:59:16.432Z,96118.00
2018-06-04T04:01:46.913Z,96117.00
2018-06-04T04:04:17.354Z,96121.00
2018-06-04T04:06:47.832Z,96113.00
2018-06-04T04:09:18.335Z,96108.00
2018-06-04T04:11:48.774Z,96122.00
2018-06-04T04:14:19.260Z,96117.00
2018-06-04T04:16:49.708Z,96116.00
2018-06-04T04:19:20.210Z,96118.00
2018-06-04T04:21:50.675Z,96115.00
2018-06-04T04:24:21.121Z,96111.00
2018-06-04T04:26:51.597Z,96121.00
2018-06-04T04:29:22.039Z,96110.00
2018-06-04T04:31:52.559Z,96116.00
2018-06-04T04:34:22.995Z,96124.00
2018-06-04T04:36:53.519Z,96124.00
2018-06-04T04:39:23.951Z,96118.00
2018-06-04T04:41:54.491Z,96119.00
2018-06-04T04:44:24.960Z,96118.00
2018-06-04T04:46:55.945Z,96122.00
2018-06-04T04:49:26.386Z,96125.00
2018-06-04T04:51:56.855Z,96120.00
2018-06-04T04:54:27.299Z,96129.00
2018-06-04T04:56:57.740Z,96122.00
2018-06-04T04:59:28.188Z,96126.00
2018-06-04T05:01:58.643Z,96120.00
2018-06-04T05:04:29.107Z,96124.00
2018-06-04T05:06:59.567Z,96123.00
2018-06-04T05:09:30.005Z,96134.00
2018-06-04T05:12:00.481Z,96132.00
2018-06-04T05:14:30.924Z,96132.00
2018-06-04T05:17:01.372Z,96132.00
2018-06-04T05:19:31.885Z,96134.00
2018-06-04T05:22:02.373Z,96137.00
2018-06-04T05:24:32.796Z,96135.00
2018-06-04T05:27:03.253Z,96133.00
2018-06-04T05:29:33.680Z,96132.00
2018-06-04T05:32:04.242Z,96132.00
2018-06-04T05:34:34.706Z,96139.00
2018-06-04T05:37:05.200Z,96137.00
2018-06-04T05:39:35.771Z,96128.00
2018-06-04T05:42:06.258Z,96129.00
2018-06-04T05:44:36.712Z,96130.00
2018-06-04T05:47:07.155Z,96135.00
2018-06-04T05:49:37.655Z,96130.00
2018-06-04T05:52:08.084Z,96127.00
2018-06-04T05:54:38.572Z,96125.00
2018-06-04T05:57:08.997Z,96129.00
2018-06-04T05:59:39.484Z,96127.00
2018-06-04T06:02:09.919Z,96126.00
2018-06-04T06:04:40.388Z,96128.00
2018-06-04T06:07:10.843Z,96130.00
2018-06-04T06:09:41.331Z,96128.00
2018-06-04T06:12:11.779Z,96128.00
2018-06-04T06:14:42.239Z,96133.00
2018-06-04T06:17:12.673Z,96138.00
2018-06-04T06:19:43.179Z,96138.00
2018-06-04T06:22:13.644Z,96138.00
2018-06-04T06:24:44.131Z,96136.00
2018-06-04T06:27:14.571Z,96136.00
2018-06-04T06:29:45.068Z,96131.00
2018-06-04T06:32:15.526Z,96130.00
2018-06-04T06:34:45.992Z,96133.00
2018-06-04T06:37:16.460Z,96132.00
2018-06-04T06:39:46.936Z,96129.00
2018-06-04T06:42:17.387Z,96124.00
2018-06-04T06:44:47.855Z,96128.00
2018-06-04T06:47:18.364Z,96127.00
2018-06-04T06:49:48.859Z,96129.00
2018-06-04T06:52:19.368Z,96129.00
2018-06-04T06:54:49.811Z,96121.00
2018-06-04T06:57:20.286Z,96124.00
2018-06-04T06:59:50.746Z,96123.00
2018-06-04T07:02:21.203Z,96126.00
2018-06-04T07:04:51.684Z,96125.00
2018-06-04T07:07:22.108Z,96123.00
2018-06-04T07:09:52.568Z,96117.00
2018-06-04T07:12:23.013Z,96120.00
2018-06-04T07:14:53.499Z,96119.00
2018-06-04T07:17:23.986Z,96121.00
2018-06-04T07:19:54.423Z,96119.00
2018-06-04T07:22:24.919Z,96117.00
2018-06-04T07:24:55.375Z,96123.00
2018-06-04T07:27:25.844Z,96119.00
2018-06-04T07:29:56.296Z,96118.00
2018-06-04T07:32:26.782Z,96117.00
2018-06-04T07:34:57.324Z,96116.00
2018-06-04T07:37:27.812Z,96117.00
2018-06-04T07:39:58.251Z,96111.00
2018-06-04T07:42:28.750Z,96117.00
2018-06-04T07:44:59.198Z,96123.00
2018-06-04T07:47:33.267Z,96127.00
2018-06-04T07:50:04.017Z,96124.00
2018-06-04T07:52:34.488Z,96117.00
2018-06-04T07:55:05.008Z,96117.00
2018-06-04T07:57:35.541Z,96119.00
2018-06-04T08:00:07.256Z,96123.00
2018-06-04T08:02:37.741Z,96116.00
2018-06-04T08:05:08.299Z,96121.00
2018-06-04T08:07:38.765Z,96111.00
2018-06-04T08:10:09.306Z,96119.00
2018-06-04T08:12:39.711Z,96112.00
2018-06-04T08:15:10.160Z,96114.00
2018-06-04T08:17:40.679Z,96116.00
2018-06-04T08:20:11.167Z,96115.00
2018-06-04T08:22:41.634Z,96120.00
2018-06-04T08:25:12.091Z,96114.00
2018-06-04T08:27:42.521Z,96111.00
2018-06-04T08:30:12.986Z,96114.00
2018-06-04T08:32:43.420Z,96109.00
2018-06-04T08:35:13.883Z,96115.00
2018-06-04T08:37:44.356Z,96103.00
2018-06-04T08:40:14.866Z,96101.00
2018-06-04T08:42:45.334Z,96100.00
2018-06-04T08:45:15.923Z,96107.00
2018-06-04T08:47:46.380Z,96111.00
2018-06-04T08:50:16.901Z,96105.00
2018-06-04T08:52:47.363Z,96108.00
2018-06-04T08:55:17.828Z,96090.00
2018-06-04T08:57:48.301Z,96094.00
2018-06-04T09:00:18.884Z,96097.00
2018-06-04T09:02:49.347Z,96097.00
2018-06-04T09:05:19.834Z,96098.00
2018-06-04T09:07:50.350Z,96085.00
2018-06-04T09:10:20.432Z,96087.00
2018-06-04T09:12:50.788Z,96091.00
2018-06-04T09:15:21.318Z,96081.00
2018-06-04T09:17:51.747Z,96071.00
2018-06-04T09:20:22.224Z,96073.00
2018-06-04T09:22:52.690Z,96084.00
2018-06-04T09:25:23.168Z,96087.00
2018-06-04T09:27:53.627Z,96082.00
2018-06-04T09:30:24.103Z,96072.00
2018-06-04T09:32:54.563Z,96080.00
2018-06-04T09:35:25.008Z,96082.00
2018-06-04T09:37:55.463Z,96078.00
2018-06-04T09:40:25.932Z,96081.00
2018-06-04T09:42:56.390Z,96072.00
2018-06-04T09:45:26.835Z,96071.00
2018-06-04T09:47:57.291Z,96074.00
2018-06-04T09:50:27.783Z,96074.00
2018-06-04T09:52:58.235Z,96074.00
2018-06-04T09:55:28.858Z,96067.00
2018-06-04T09:57:59.360Z,96057.00
2018-06-04T10:00:34.850Z,96059.00
2018-06-04T10:03:06.116Z,96043.00
2018-06-04T10:05:36.560Z,96040.00
2018-06-04T10:08:07.050Z,96038.00
2018-06-04T10:10:37.483Z,96044.00
2018-06-04T10:13:08.717Z,96042.00
2018-06-04T10:15:39.196Z,96046.00
2018-06-04T10:18:09.663Z,96045.00
2018-06-04T10:20:40.113Z,96060.00
2018-06-04T10:23:10.575Z,96039.00
2018-06-04T10:25:41.054Z,96041.00
2018-06-04T10:28:11.489Z,96036.00
2018-06-04T10:30:41.963Z,96035.00
2018-06-04T10:33:12.417Z,96032.00
2018-06-04T10:35:42.875Z,96027.00
2018-06-04T10:38:13.351Z,96031.00
2018-06-04T10:40:43.808Z,96027.00
2018-06-04T10:43:14.278Z,96021.00
2018-06-04T10:45:44.756Z,96020.00
2018-06-04T10:48:15.199Z,96009.00
2018-06-04T10:50:45.692Z,95993.00
2018-06-04T10:53:16.164Z,95985.00
2018-06-04T10:55:46.637Z,95981.00
2018-06-04T10:58:17.075Z,95985.00
2018-06-04T11:00:47.562Z,95982.00
2018-06-04T11:03:18.015Z,95981.00
2018-06-04T11:05:48.542Z,95972.00
2018-06-04T11:08:18.629Z,95967.00
2018-06-04T11:10:48.997Z,95971.00
2018-06-04T11:13:19.456Z,95966.00
2018-06-04T11:15:50.250Z,95952.00
2018-06-04T11:18:20.725Z,95947.00
2018-06-04T11:20:51.168Z,95943.00
2018-06-04T11:23:21.707Z,95937.00
2018-06-04T11:25:52.205Z,95928.00
2018-06-04T11:28:22.660Z,95933.00
2018-06-04T11:30:53.116Z,95927.00
2018-06-04T11:33:23.593Z,95916.00
2018-06-04T11:35:54.036Z,95907.00
2018-06-04T11:38:24.512Z,95907.00
2018-06-04T11:40:54.635Z,95911.00
2018-06-04T11:43:24.709Z,95914.00
2018-06-04T11:45:54.459Z,95913.00
2018-06-04T11:48:24.440Z,95903.00
2018-06-04T11:50:54.531Z,95898.00
2018-06-04T11:53:24.697Z,95901.00
2018-06-04T11:55:54.781Z,95900.00
2018-06-04T11:58:24.854Z,95899.00
2018-06-04T12:00:54.963Z,95900.00
2018-06-04T12:03:25.055Z,95889.00
2018-06-04T12:05:55.222Z,95886.00
2018-06-04T12:08:25.317Z,95885.00
2018-06-04T12:10:55.401Z,95880.00
2018-06-04T12:13:25.526Z,95870.00
2018-06-04T12:15:55.614Z,95875.00
2018-06-04T12:18:25.719Z,95872.00
2018-06-04T12:20:55.808Z,95877.00
2018-06-04T12:23:25.916Z,95880.00
2018-06-04T12:25:55.967Z,95877.00
2018-06-04T12:28:26.065Z,95881.00
2018-06-04T12:30:56.138Z,95879.00
2018-06-04T12:33:26.203Z,95881.00
2018-06-04T12:35:56.276Z,95884.00
2018-06-04T12:38:26.369Z,95882.00
2018-06-04T12:40:56.428Z,95871.00
2018-06-04T12:43:26.520Z,95862.00
2018-06-04T12:45:56.616Z,95854.00
2018-06-04T12:48:26.679Z,95853.00
2018-06-04T12:50:56.796Z,95845.00
2018-06-04T12:53:26.867Z,95841.00
2018-06-04T12:55:56.958Z,95849.00
2018-06-04T12:58:27.140Z,95844.00
2018-06-04T13:00:57.208Z,95835.00
2018-06-04T13:03:27.279Z,95836.00
2018-06-04T13:05:57.355Z,95839.00
2018-06-04T13:08:27.430Z,95848.00
2018-06-04T13:10:57.589Z,95840.00
2018-06-04T13:13:27.668Z,95844.00
2018-06-04T13:15:57.761Z,95839.00
2018-06-04T13:18:27.836Z,95828.00
2018-06-04T13:20:57.937Z,95817.00
2018-06-04T13:23:28.068Z,95826.00
2018-06-04T13:25:58.144Z,95830.00
2018-06-04T13:28:28.297Z,95839.00
2018-06-04T13:30:58.361Z,95835.00
2018-06-04T13:33:28.445Z,95820.00
2018-06-04T13:35:58.507Z,95825.00
2018-06-04T13:38:28.584Z,95844.00
2018-06-04T13:40:58.654Z,95841.00
2018-06-04T13:43:28.729Z,95834.00
2018-06-04T13:45:58.801Z,95840.00
2018-06-04T13:48:28.876Z,95844.00
2018-06-04T13:50:58.946Z,95840.00
2018-06-04T13:53:29.027Z,95842.00
2018-06-04T13:55:59.100Z,95838.00
2018-06-04T13:58:29.202Z,95836.00
2018-06-04T14:00:59.296Z,95841.00
2018-06-04T14:03:29.428Z,95840.00
2018-06-04T14:05:59.528Z,95839.00
2018-06-04T14:08:29.645Z,95840.00
2018-06-04T14:10:59.719Z,95833.00
2018-06-04T14:13:29.801Z,95833.00
2018-06-04T14:15:59.860Z,95822.00
2018-06-04T14:18:29.940Z,95824.00
2018-06-04T14:21:00.027Z,95811.00
2018-06-04T14:23:30.106Z,95804.00
2018-06-04T14:26:00.179Z,95793.00
2018-06-04T14:28:30.267Z,95795.00
2018-06-04T14:31:00.365Z,95791.00
2018-06-04T14:33:30.432Z,95780.00
2018-06-04T14:36:00.537Z,95781.00
2018-06-04T14:38:30.688Z,95788.00
2018-06-04T14:41:00.974Z,95785.00
2018-06-04T14:43:31.040Z,95801.00
2018-06-04T14:46:01.138Z,95804.00
2018-06-04T14:48:31.322Z,95803.00
2018-06-04T14:51:01.416Z,95811.00
2018-06-04T14:53:31.631Z,95810.00
2018-06-04T14:56:01.782Z,95800.00
2018-06-04T14:58:31.860Z,95801.00
2018-06-04T15:01:01.961Z,95792.00
2018-06-04T15:03:32.053Z,95792.00
2018-06-04T15:06:02.232Z,95790.00
2018-06-04T15:08:32.335Z,95781.00
2018-06-04T15:11:02.407Z,95780.00
2018-06-04T15:13:32.550Z,95777.00
2018-06-04T15:16:02.704Z,95779.00
2018-06-04T15:18:32.773Z,95787.00
2018-06-04T15:21:02.859Z,95798.00
2018-06-04T15:23:33.038Z,95805.00
2018-06-04T15:26:03.208Z,95804.00
2018-06-04T15:28:33.309Z,95813.00
2018-06-04T15:31:03.423Z,95804.00
2018-06-04T15:33:33.536Z,95813.00
2018-06-04T15:36:04.723Z,95812.00
2018-06-04T15:38:35.243Z,95808.00
2018-06-04T15:41:05.460Z,95794.00
2018-06-04T15:43:35.549Z,95769.00
2018-06-04T15:46:05.660Z,95754.00
2018-06-04T15:48:35.791Z,95752.00
2018-06-04T15:51:05.904Z,95746.00
2018-06-04T15:53:36.025Z,95744.00
2018-06-04T15:56:06.145Z,95745.00
2018-06-04T15:58:36.212Z,95746.00
2018-06-04T16:01:06.312Z,95752.00
2018-06-04T16:03:36.431Z,95753.00
2018-06-04T16:06:06.540Z,95749.00
2018-06-04T16:08:36.621Z,95752.00
2018-06-04T16:11:06.814Z,95750.00
2018-06-04T16:13:36.936Z,95738.00
2018-06-04T16:16:07.138Z,95733.00
2018-06-04T16:18:37.217Z,95730.00
2018-06-04T16:21:07.300Z,95735.00
2018-06-04T16:23:37.386Z,95743.00
2018-06-04T16:26:07.549Z,95762.00
2018-06-04T16:28:37.668Z,95768.00
2018-06-04T16:31:07.793Z,95775.00
2018-06-04T16:33:37.896Z,95777.00
2018-06-04T16:36:08.058Z,95771.00
2018-06-04T16:38:38.228Z,95786.00
2018-06-04T16:41:08.332Z,95796.00
2018-06-04T16:43:38.444Z,95805.00
2018-06-04T16:46:08.577Z,95802.00
2018-06-04T16:48:38.671Z,95802.00
2018-06-04T16:51:08.763Z,95801.00
2018-06-04T16:53:38.916Z,95796.00
2018-06-04T16:56:09.036Z,95793.00
2018-06-04T16:58:39.148Z,95785.00
2018-06-04T17:01:09.241Z,95774.00
2018-06-04T17:03:39.380Z,95773.00
2018-06-04T17:06:09.502Z,95774.00
2018-06-04T17:08:39.584Z,95769.00
2018-06-04T17:11:09.708Z,95768.00
2018-06-04T17:13:39.826Z,95773.00
2018-06-04T17:16:10.028Z,95774.00
2018-06-04T17:18:40.164Z,95777.00
2018-06-04T17:21:10.320Z,95772.00
2018-06-04T17:23:40.768Z,95786.00
2018-06-04T17:26:11.021Z,95795.00
2018-06-04T17:28:41.124Z,95800.00
2018-06-04T17:31:11.243Z,95808.00
2018-06-04T17:33:41.336Z,95816.00
2018-06-04T17:36:11.534Z,95798.00
2018-06-04T17:38:41.879Z,95786.00
2018-06-04T17:41:11.952Z,95784.00
2018-06-04T17:43:42.424Z,95788.00
2018-06-04T17:46:12.555Z,95791.00
2018-06-04T17:48:42.970Z,95808.00
2018-06-04T17:51:13.087Z,95815.00
2018-06-04T17:53:43.188Z,95816.00
2018-06-04T17:56:13.339Z,95818.00
2018-06-04T17:58:43.461Z,95809.00
2018-06-04T18:01:13.571Z,95809.00
2018-06-04T18:03:43.696Z,95805.00
2018-06-04T18:06:14.001Z,95813.00
2018-06-04T18:08:44.078Z,95810.00
2018-06-04T18:11:13.859Z,95813.00
2018-06-04T18:13:43.903Z,95804.00
2018-06-04T18:16:14.004Z,95799.00
2018-06-04T18:18:44.101Z,95795.00
2018-06-04T18:21:14.196Z,95793.00
2018-06-04T18:23:44.368Z,95799.00
2018-06-04T18:26:14.514Z,95818.00
2018-06-04T18:28:44.620Z,95812.00
2018-06-04T18:31:15.043Z,95793.00
2018-06-04T18:33:45.136Z,95790.00
2018-06-04T18:36:15.266Z,95790.00
2018-06-04T18:38:45.380Z,95785.00
2018-06-04T18:41:15.496Z,95785.00
2018-06-04T18:43:45.697Z,95776.00
2018-06-04T18:46:15.791Z,95777.00
2018-06-04T18:48:45.875Z,95781.00
2018-06-04T18:51:15.976Z,95775.00
2018-06-04T18:53:46.064Z,95774.00
2018-06-04T18:56:16.205Z,95772.00
2018-06-04T18:58:46.292Z,95773.00
2018-06-04T19:01:16.412Z,95777.00
2018-06-04T19:03:46.476Z,95775.00
2018-06-04T19:06:16.626Z,95760.00
2018-06-04T19:08:46.730Z,95782.00
2018-06-04T19:11:16.853Z,95791.00
2018-06-04T19:13:46.957Z,95795.00
2018-06-04T19:16:17.089Z,95802.00
2018-06-04T19:18:47.261Z,95814.00
2018-06-04T19:21:17.447Z,95815.00
2018-06-04T19:23:47.861Z,95818.00
2018-06-04T19:26:17.953Z,95822.00
2018-06-04T19:28:48.080Z,95815.00
2018-06-04T19:31:18.167Z,95814.00
2018-06-04T19:33:48.239Z,95820.00
2018-06-04T19:36:18.402Z,95818.00
2018-06-04T19:38:49.368Z,95812.00
2018-06-04T19:41:19.821Z,95817.00
2018-06-04T19:43:49.935Z,95808.00
2018-06-04T19:46:20.064Z,95809.00
2018-06-04T19:48:50.356Z,95808.00
2018-06-04T19:51:20.459Z,95805.00
2018-06-04T19:53:50.544Z,95808.00
2018-06-04T19:56:20.650Z,95802.00
2018-06-04T19:58:50.725Z,95811.00
2018-06-04T20:01:20.801Z,95801.00
2018-06-04T20:03:50.895Z,95801.00
2018-06-04T20:06:20.993Z,95807.00
2018-06-04T20:08:51.073Z,95809.00
2018-06-04T20:11:21.184Z,95809.00
2018-06-04T20:13:51.276Z,95806.00
2018-06-04T20:16:21.372Z,95806.00
2018-06-04T20:18:51.437Z,95793.00
2018-06-04T20:21:21.532Z,95808.00
2018-06-04T20:23:51.774Z,95799.00
2018-06-04T20:26:21.832Z,95806.00
2018-06-04T20:28:51.911Z,95805.00
2018-06-04T20:31:21.980Z,95815.00
2018-06-04T20:33:52.149Z,95807.00
2018-06-04T20:36:22.232Z,95810.00
2018-06-04T20:38:52.320Z,95807.00
2018-06-04T20:41:22.416Z,95802.00
2018-06-04T20:43:52.473Z,95810.00
2018-06-04T20:46:22.707Z,95805.00
2018-06-04T20:48:52.776Z,95799.00
2018-06-04T20:51:22.866Z,95796.00
2018-06-04T20:53:52.933Z,95806.00
2018-06-04T20:56:23.119Z,95797.00
2018-06-04T20:58:53.196Z,95800.00
2018-06-04T21:01:23.384Z,95790.00
2018-06-04T21:03:53.464Z,95795.00
2018-06-04T21:06:23.627Z,95798.00
2018-06-04T21:08:53.740Z,95799.00
2018-06-04T21:11:23.813Z,95799.00
2018-06-04T21:13:53.910Z,95791.00
2018-06-04T21:16:23.971Z,95790.00
2018-06-04T21:18:54.043Z,95787.00
2018-06-04T21:21:24.105Z,95785.00
2018-06-04T21:23:54.179Z,95787.00
2018-06-04T21:26:24.251Z,95781.00
2018-06-04T21:28:54.364Z,95783.00
2018-06-04T21:31:24.448Z,95782.00
2018-06-04T21:33:54.539Z,95775.00
2018-06-04T21:36:24.635Z,95774.00
2018-06-04T21:38:54.696Z,95775.00
2018-06-04T21:41:24.775Z,95774.00
2018-06-04T21:43:54.847Z,95770.00
2018-06-04T21:46:24.929Z,95766.00
2018-06-04T21:48:54.994Z,95762.00
2018-06-04T21:51:25.060Z,95758.00
2018-06-04T21:53:55.141Z,95755.00
2018-06-04T21:56:25.244Z,95760.00
2018-06-04T21:58:55.304Z,95760.00
2018-06-04T22:01:25.402Z,95750.00
2018-06-04T22:03:55.191Z,95751.00
2018-06-04T22:06:25.176Z,95748.00
2018-06-04T22:08:55.280Z,95746.00
2018-06-04T22:11:25.372Z,95753.00
2018-06-04T22:13:55.448Z,95746.00
2018-06-04T22:16:25.539Z,95750.00
2018-06-04T22:18:55.611Z,95750.00
2018-06-04T22:21:25.718Z,95748.00
2018-06-04T22:23:55.771Z,95752.00
2018-06-04T22:26:25.868Z,95753.00
2018-06-04T22:28:55.929Z,95751.00
2018-06-04T22:31:26.017Z,95757.00
2018-06-04T22:33:56.075Z,95754.00
2018-06-04T22:36:26.159Z,95748.00
2018-06-04T22:38:56.232Z,95752.00
2018-06-04T22:41:26.424Z,95752.00
2018-06-04T22:43:56.546Z,95751.00
2018-06-04T22:46:26.621Z,95753.00
2018-06-04T22:48:56.779Z,95747.00
2018-06-04T22:51:26.844Z,95748.00
2018-06-04T22:53:56.928Z,95755.00
2018-06-04T22:56:27.019Z,95759.00
2018-06-04T22:58:57.091Z,95760.00
2018-06-04T23:01:27.174Z,95750.00
2018-06-04T23:03:57.308Z,95746.00
2018-06-04T23:06:27.379Z,95747.00
2018-06-04T23:08:57.445Z,95755.00
2018-06-04T23:11:27.504Z,95747.00
2018-06-04T23:13:57.579Z,95761.00
2018-06-04T23:16:27.656Z,95761.00
2018-06-04T23:18:57.745Z,95766.00
2018-06-04T23:21:27.835Z,95762.00
2018-06-04T23:23:57.935Z,95756.00
2018-06-04T23:26:28.004Z,95760.00
2018-06-04T23:28:58.092Z,95760.00
2018-06-04T23:31:28.158Z,95756.00
2018-06-04T23:33:58.224Z,95759.00
2018-06-04T23:36:28.327Z,95757.00
2018-06-04T23:38:58.400Z,95758.00
2018-06-04T23:41:28.476Z,95759.00
2018-06-04T23:43:58.536Z,95760.00
2018-06-04T23:46:28.644Z,95750.00
2018-06-04T23:48:58.758Z,95757.00
2018-06-04T23:51:28.848Z,95748.00
2018-06-04T23:53:58.919Z,95756.00
2018-06-04T23:56:28.984Z,95742.00
2018-06-04T23:58:59.116Z,95752.00
